createdAt,value
2022-08-10T00:01:54.193Z,21.80
2022-08-10T00:04:22.687Z,21.80
2022-08-10T00:06:54.008Z,21.90
2022-08-10T00:09:21.882Z,21.90
2022-08-10T00:11:48.543Z,21.90
2022-08-10T00:14:15.457Z,21.80
2022-08-10T00:16:42.111Z,21.80
2022-08-10T00:19:08.720Z,21.90
2022-08-10T00:21:37.025Z,21.90
2022-08-10T00:24:04.079Z,21.90
2022-08-10T00:27:51.781Z,21.90
2022-08-10T00:29:17.475Z,21.90
2022-08-10T00:31:58.016Z,21.90
2022-08-10T00:34:26.806Z,21.90
2022-08-10T00:36:53.457Z,22.00
2022-08-10T00:39:20.179Z,22.00
2022-08-10T00:42:06.767Z,22.00
2022-08-10T00:44:55.144Z,22.00
2022-08-10T00:47:37.221Z,22.00
2022-08-10T00:50:06.247Z,21.90
2022-08-10T00:52:34.822Z,21.90
2022-08-10T00:55:03.130Z,21.90
2022-08-10T00:57:30.647Z,21.90
2022-08-10T01:00:00.139Z,21.90
2022-08-10T01:02:32.392Z,21.90
2022-08-10T01:05:03.668Z,21.90
2022-08-10T01:08:16.137Z,21.90
2022-08-10T01:10:53.488Z,21.90
2022-08-10T01:13:41.065Z,21.90
2022-08-10T01:16:18.236Z,21.90
2022-08-10T01:18:51.756Z,21.90
2022-08-10T01:21:54.331Z,21.80
2022-08-10T01:25:11.519Z,21.80
2022-08-10T01:28:20.839Z,21.80
2022-08-10T01:30:53.533Z,21.80
2022-08-10T01:33:29.149Z,21.70
2022-08-10T01:36:19.509Z,21.70
2022-08-10T01:39:01.925Z,21.70
2022-08-10T01:41:45.567Z,21.70
2022-08-10T01:44:23.807Z,21.70
2022-08-10T01:46:57.135Z,21.70
2022-08-10T01:49:25.611Z,21.70
2022-08-10T01:52:00.478Z,21.70
2022-08-10T01:54:30.053Z,21.60
2022-08-10T01:56:58.190Z,21.70
2022-08-10T01:59:30.163Z,21.60
2022-08-10T02:02:02.303Z,21.60
2022-08-10T02:04:31.133Z,21.60
2022-08-10T02:06:58.817Z,21.50
2022-08-10T02:09:28.746Z,21.50
2022-08-10T02:12:07.002Z,21.60
2022-08-10T02:14:42.896Z,21.60
2022-08-10T02:18:00.526Z,21.50
2022-08-10T02:20:08.528Z,21.60
2022-08-10T02:22:39.146Z,21.60
2022-08-10T02:25:41.476Z,21.60
2022-08-10T02:27:59.267Z,21.60
2022-08-10T02:30:28.095Z,21.60
2022-08-10T02:32:56.544Z,21.50
2022-08-10T02:35:24.043Z,21.60
2022-08-10T02:37:59.820Z,21.60
2022-08-10T02:45:14.851Z,21.60
2022-08-10T02:45:19.059Z,21.60
2022-08-10T02:46:28.212Z,21.50
2022-08-10T02:49:01.874Z,21.50
2022-08-10T02:52:06.666Z,21.50
2022-08-10T02:54:48.836Z,21.50
2022-08-10T02:57:27.669Z,21.50
2022-08-10T02:59:59.433Z,21.50
2022-08-10T03:02:40.836Z,21.50
2022-08-10T03:05:11.639Z,21.50
2022-08-10T03:07:50.095Z,21.50
2022-08-10T03:10:26.327Z,21.50
2022-08-10T03:12:57.648Z,21.50
2022-08-10T03:15:26.941Z,21.50
2022-08-10T03:17:57.682Z,21.50
2022-08-10T03:20:37.247Z,21.50
2022-08-10T03:23:10.811Z,21.50
2022-08-10T03:25:38.164Z,21.50
2022-08-10T03:28:06.000Z,21.40
2022-08-10T03:30:34.501Z,21.40
2022-08-10T03:33:04.283Z,21.40
2022-08-10T03:35:31.532Z,21.40
2022-08-10T03:38:00.178Z,21.40
2022-08-10T03:40:46.317Z,21.40
2022-08-10T03:43:19.195Z,21.40
2022-08-10T03:45:56.640Z,21.40
2022-08-10T03:48:44.623Z,21.40
2022-08-10T03:51:13.416Z,21.50
2022-08-10T03:54:04.871Z,21.50
2022-08-10T03:56:31.981Z,21.50
2022-08-10T03:59:00.340Z,21.50
2022-08-10T04:02:44.654Z,21.50
2022-08-10T04:04:19.210Z,21.50
2022-08-10T04:06:47.599Z,21.50
2022-08-10T04:09:18.322Z,21.50
2022-08-10T04:11:45.040Z,21.50
2022-08-10T04:14:38.035Z,21.50
2022-08-10T04:16:58.442Z,21.50
2022-08-10T04:19:26.061Z,21.60
2022-08-10T04:22:13.638Z,21.50
2022-08-10T04:24:43.149Z,21.50
2022-08-10T04:27:09.966Z,21.50
2022-08-10T04:29:36.930Z,21.50
2022-08-10T04:32:05.073Z,21.50
2022-08-10T04:34:33.425Z,21.50
2022-08-10T04:37:08.587Z,21.50
2022-08-10T04:39:36.234Z,21.50
2022-08-10T04:42:03.755Z,21.50
2022-08-10T04:44:30.994Z,21.50
2022-08-10T04:46:59.235Z,21.50
2022-08-10T04:49:54.334Z,21.50
2022-08-10T04:52:14.009Z,21.60
2022-08-10T04:54:41.739Z,21.50
2022-08-10T04:57:08.836Z,21.50
2022-08-10T04:59:35.573Z,21.50
2022-08-10T05:02:30.473Z,21.50
2022-08-10T05:04:49.410Z,21.60
2022-08-10T05:07:18.083Z,21.60
2022-08-10T05:10:04.971Z,21.50
2022-08-10T05:12:38.564Z,21.50
2022-08-10T05:15:09.912Z,21.50
2022-08-10T05:17:37.142Z,21.50
2022-08-10T05:20:09.025Z,21.50
2022-08-10T05:22:41.142Z,21.60
2022-08-10T05:25:11.413Z,21.70
2022-08-10T05:27:39.257Z,21.70
2022-08-10T05:30:07.661Z,21.80
2022-08-10T05:32:55.373Z,21.80
2022-08-10T05:35:22.014Z,21.90
2022-08-10T05:38:11.510Z,21.90
2022-08-10T05:40:46.096Z,21.90
2022-08-10T05:43:24.043Z,21.90
2022-08-10T05:46:18.958Z,21.90
2022-08-10T05:48:41.800Z,21.90
2022-08-10T05:51:28.100Z,21.90
2022-08-10T05:54:02.765Z,22.20
2022-08-10T05:56:55.979Z,22.30
2022-08-10T06:00:33.444Z,22.30
2022-08-10T06:02:30.807Z,22.10
2022-08-10T06:05:05.620Z,22.00
2022-08-10T06:07:33.586Z,22.10
2022-08-10T06:10:01.872Z,22.30
2022-08-10T06:12:30.558Z,22.30
2022-08-10T06:15:05.567Z,22.40
2022-08-10T06:17:38.216Z,22.40
2022-08-10T06:20:05.897Z,22.40
2022-08-10T06:22:33.482Z,22.30
2022-08-10T06:25:37.824Z,22.30
2022-08-10T06:27:49.488Z,22.20
2022-08-10T06:30:20.614Z,22.20
2022-08-10T06:32:50.392Z,22.10
2022-08-10T06:35:18.122Z,22.10
2022-08-10T06:37:50.972Z,22.00
2022-08-10T06:40:19.537Z,22.00
2022-08-10T06:42:50.975Z,22.10
2022-08-10T06:45:22.680Z,22.30
2022-08-10T06:48:00.239Z,22.40
2022-08-10T06:50:56.116Z,22.40
2022-08-10T06:53:25.662Z,22.30
2022-08-10T06:56:15.891Z,22.20
2022-08-10T06:58:49.221Z,22.30
2022-08-10T07:01:17.181Z,22.30
2022-08-10T07:03:47.555Z,22.30
2022-08-10T07:06:16.040Z,22.20
2022-08-10T07:08:43.823Z,22.20
2022-08-10T07:11:12.264Z,22.30
2022-08-10T07:14:16.843Z,22.30
2022-08-10T07:16:28.537Z,22.30
2022-08-10T07:18:57.696Z,22.40
2022-08-10T07:21:27.060Z,22.30
2022-08-10T07:24:00.034Z,22.30
2022-08-10T07:26:30.073Z,22.40
2022-08-10T07:28:58.029Z,22.50
2022-08-10T07:31:54.534Z,22.50
2022-08-10T07:34:28.726Z,22.50
2022-08-10T07:37:00.310Z,22.60
2022-08-10T07:40:02.552Z,22.50
2022-08-10T07:42:20.616Z,22.50
2022-08-10T07:44:48.974Z,22.50
2022-08-10T07:47:19.270Z,22.50
2022-08-10T07:50:08.713Z,22.50
2022-08-10T07:52:37.914Z,22.50
2022-08-10T07:55:07.581Z,22.50
2022-08-10T07:57:40.284Z,22.60
2022-08-10T08:00:10.780Z,22.60
2022-08-10T08:02:45.988Z,22.50
2022-08-10T08:05:57.234Z,22.50
2022-08-10T08:08:02.385Z,22.60
2022-08-10T08:10:31.141Z,22.60
2022-08-10T08:12:58.926Z,22.60
2022-08-10T08:16:17.053Z,22.60
2022-08-10T08:18:20.537Z,22.50
2022-08-10T08:20:52.803Z,22.50
2022-08-10T08:24:15.845Z,22.50
2022-08-10T08:26:10.947Z,22.50
2022-08-10T08:28:38.516Z,22.60
2022-08-10T08:31:05.762Z,22.60
2022-08-10T08:33:41.689Z,22.70
2022-08-10T08:36:10.809Z,22.60
2022-08-10T08:38:38.502Z,22.60
2022-08-10T08:41:22.542Z,22.60
2022-08-10T08:43:55.047Z,22.50
2022-08-10T08:47:03.261Z,22.60
2022-08-10T08:50:15.045Z,22.60
2022-08-10T08:53:21.203Z,22.60
2022-08-10T08:56:07.284Z,22.50
2022-08-10T08:59:22.435Z,22.50
2022-08-10T09:02:24.075Z,22.50
2022-08-10T09:05:28.231Z,22.60
2022-08-10T09:08:07.037Z,22.60
2022-08-10T09:10:58.374Z,22.60
2022-08-10T09:13:57.359Z,22.70
2022-08-10T09:16:37.739Z,22.70
2022-08-10T09:19:36.316Z,22.60
2022-08-10T09:22:40.367Z,22.60
2022-08-10T09:25:20.346Z,22.60
2022-08-10T09:27:49.326Z,22.60
2022-08-10T09:30:29.118Z,22.60
2022-08-10T09:36:24.059Z,22.70
2022-08-10T09:36:24.062Z,22.70
2022-08-10T09:39:07.986Z,22.80
2022-08-10T09:41:58.959Z,22.80
2022-08-10T09:44:31.837Z,22.70
2022-08-10T09:48:01.042Z,22.70
2022-08-10T09:50:23.017Z,22.70
2022-08-10T09:53:08.302Z,22.70
2022-08-10T09:56:18.966Z,22.60
2022-08-10T09:59:26.917Z,22.70
2022-08-10T10:02:09.151Z,22.70
2022-08-10T10:04:57.229Z,22.70
2022-08-10T10:07:27.419Z,22.90
2022-08-10T10:10:33.229Z,23.10
2022-08-10T10:13:14.253Z,23.00
2022-08-10T10:15:52.999Z,22.90
2022-08-10T10:18:39.125Z,22.80
2022-08-10T10:21:54.534Z,22.80
2022-08-10T10:24:39.349Z,22.70
2022-08-10T10:27:29.259Z,22.70
2022-08-10T10:30:03.561Z,22.70
2022-08-10T10:32:39.557Z,22.70
2022-08-10T10:35:24.240Z,22.70
2022-08-10T10:38:02.167Z,22.70
2022-08-10T10:40:54.864Z,22.70
2022-08-10T10:43:35.418Z,22.70
2022-08-10T10:46:24.450Z,22.70
2022-08-10T10:49:07.019Z,22.70
2022-08-10T10:51:43.269Z,22.70
2022-08-10T10:54:32.342Z,22.70
2022-08-10T10:57:13.552Z,22.60
2022-08-10T11:00:09.808Z,22.60
2022-08-10T11:03:23.087Z,22.60
2022-08-10T11:06:15.976Z,22.60
2022-08-10T11:08:51.342Z,22.60
2022-08-10T11:12:01.917Z,22.60
2022-08-10T11:14:41.764Z,22.60
2022-08-10T11:17:17.380Z,22.60
2022-08-10T11:20:05.463Z,22.60
2022-08-10T11:22:44.771Z,22.60
2022-08-10T11:25:37.748Z,22.70
2022-08-10T11:28:18.205Z,22.60
2022-08-10T11:30:58.112Z,22.60
2022-08-10T11:34:47.704Z,22.60
2022-08-10T11:36:46.622Z,22.80
2022-08-10T11:39:25.295Z,23.10
2022-08-10T11:42:08.839Z,23.30
2022-08-10T11:44:59.854Z,23.30
2022-08-10T11:47:41.526Z,23.50
2022-08-10T11:50:16.105Z,23.40
2022-08-10T11:53:02.787Z,23.40
2022-08-10T11:55:33.102Z,23.30
2022-08-10T11:58:29.556Z,23.50
2022-08-10T12:00:59.204Z,23.60
2022-08-10T12:03:31.391Z,23.30
2022-08-10T12:06:01.901Z,23.20
2022-08-10T12:10:07.578Z,23.00
2022-08-10T12:11:25.772Z,23.00
2022-08-10T12:14:21.799Z,22.90
2022-08-10T12:16:53.463Z,23.10
2022-08-10T12:19:59.613Z,23.10
2022-08-10T12:22:30.772Z,23.50
2022-08-10T12:25:07.409Z,24.00
2022-08-10T12:27:54.742Z,24.10
2022-08-10T12:30:36.000Z,24.10
2022-08-10T12:33:09.387Z,24.10
2022-08-10T12:36:14.991Z,23.90
2022-08-10T12:39:00.916Z,23.70
2022-08-10T12:41:43.658Z,23.50
2022-08-10T12:44:41.537Z,23.60
2022-08-10T12:47:46.833Z,23.40
2022-08-10T12:50:32.906Z,23.20
2022-08-10T12:53:24.360Z,23.10
2022-08-10T12:55:51.789Z,23.00
2022-08-10T12:59:00.272Z,23.30
2022-08-10T13:01:17.193Z,23.30
2022-08-10T13:04:23.569Z,23.20
2022-08-10T13:06:43.395Z,23.10
2022-08-10T13:09:10.180Z,23.10
2022-08-10T13:12:35.624Z,23.30
2022-08-10T13:14:41.525Z,23.30
2022-08-10T13:17:09.367Z,23.20
2022-08-10T13:19:56.523Z,23.50
2022-08-10T13:22:28.370Z,24.00
2022-08-10T13:25:01.146Z,24.30
2022-08-10T13:28:00.079Z,24.20
2022-08-10T13:30:33.573Z,23.80
2022-08-10T13:33:05.063Z,23.80
2022-08-10T13:35:33.244Z,23.80
2022-08-10T13:38:02.832Z,23.60
2022-08-10T13:40:31.841Z,23.80
2022-08-10T13:43:00.701Z,23.60
2022-08-10T13:45:28.616Z,23.60
2022-08-10T13:48:09.420Z,24.00
2022-08-10T13:50:37.541Z,23.90
2022-08-10T13:53:14.981Z,23.80
2022-08-10T13:55:56.717Z,24.00
2022-08-10T13:58:31.027Z,24.20
2022-08-10T14:01:00.549Z,24.10
2022-08-10T14:03:28.218Z,24.20
2022-08-10T14:05:58.225Z,24.40
2022-08-10T14:08:31.634Z,24.20
2022-08-10T14:11:16.769Z,23.80
2022-08-10T14:14:15.809Z,23.60
2022-08-10T14:16:44.004Z,23.50
2022-08-10T14:19:16.017Z,23.60
2022-08-10T14:21:43.290Z,23.90
2022-08-10T14:24:27.096Z,23.70
2022-08-10T14:27:11.644Z,23.60
2022-08-10T14:29:43.021Z,23.40
2022-08-10T14:32:12.636Z,23.50
2022-08-10T14:34:59.094Z,23.90
2022-08-10T14:37:37.787Z,24.30
2022-08-10T14:40:14.520Z,24.40
2022-08-10T14:42:56.411Z,24.30
2022-08-10T14:45:35.469Z,24.00
2022-08-10T14:48:23.416Z,23.80
2022-08-10T14:50:59.522Z,24.10
2022-08-10T14:53:34.539Z,24.30
2022-08-10T14:56:07.717Z,24.00
2022-08-10T14:59:05.838Z,23.90
2022-08-10T15:02:01.151Z,24.00
2022-08-10T15:04:23.334Z,24.20
2022-08-10T15:07:01.153Z,24.10
2022-08-10T15:10:00.808Z,24.00
2022-08-10T15:12:32.000Z,24.10
2022-08-10T15:15:01.236Z,24.00
2022-08-10T15:17:36.804Z,23.80
2022-08-10T15:20:14.983Z,23.70
2022-08-10T15:23:39.562Z,23.60
2022-08-10T15:26:27.604Z,23.60
2022-08-10T15:29:22.338Z,23.60
2022-08-10T15:32:08.450Z,23.80
2022-08-10T15:34:53.787Z,24.20
2022-08-10T15:37:39.753Z,24.30
2022-08-10T15:40:27.008Z,24.10
2022-08-10T15:43:20.440Z,24.20
2022-08-10T15:45:58.535Z,24.30
2022-08-10T15:48:29.046Z,24.30
2022-08-10T15:51:01.679Z,24.30
2022-08-10T15:53:50.460Z,24.10
2022-08-10T15:56:33.359Z,24.00
2022-08-10T15:59:34.093Z,23.80
2022-08-10T16:02:17.153Z,23.70
2022-08-10T16:04:55.361Z,23.60
2022-08-10T16:07:45.374Z,23.50
2022-08-10T16:10:25.949Z,23.60
2022-08-10T16:13:01.327Z,23.80
2022-08-10T16:15:30.152Z,23.70
2022-08-10T16:18:17.379Z,23.60
2022-08-10T16:20:55.506Z,23.50
2022-08-10T16:23:29.229Z,23.50
2022-08-10T16:26:04.639Z,23.50
2022-08-10T16:28:36.191Z,23.50
2022-08-10T16:31:06.419Z,23.50
2022-08-10T16:33:52.965Z,23.60
2022-08-10T16:36:22.505Z,23.50
2022-08-10T16:38:51.829Z,23.50
2022-08-10T16:42:02.823Z,23.50
2022-08-10T16:44:10.888Z,23.40
2022-08-10T16:46:43.690Z,23.50
2022-08-10T16:49:12.900Z,23.50
2022-08-10T16:51:41.150Z,23.60
2022-08-10T16:54:10.591Z,23.70
2022-08-10T16:56:48.620Z,23.70
2022-08-10T16:59:24.075Z,23.60
2022-08-10T17:01:54.084Z,23.60
2022-08-10T17:04:23.739Z,23.60
2022-08-10T17:07:06.234Z,23.60
2022-08-10T17:09:35.655Z,23.50
2022-08-10T17:12:11.316Z,23.60
2022-08-10T17:14:41.547Z,23.60
2022-08-10T17:17:24.161Z,23.50
2022-08-10T17:19:57.035Z,23.50
2022-08-10T17:22:45.338Z,23.60
2022-08-10T17:25:16.226Z,23.60
2022-08-10T17:28:04.911Z,23.60
2022-08-10T17:30:34.074Z,23.60
2022-08-10T17:33:13.505Z,23.60
2022-08-10T17:35:44.048Z,23.50
2022-08-10T17:38:17.858Z,23.50
2022-08-10T17:40:56.467Z,23.60
2022-08-10T17:43:58.586Z,23.60
2022-08-10T17:46:13.933Z,23.60
2022-08-10T17:48:42.909Z,23.50
2022-08-10T17:51:13.847Z,23.60
2022-08-10T17:53:50.217Z,23.60
2022-08-10T17:56:20.745Z,23.60
2022-08-10T17:58:54.821Z,23.60
2022-08-10T18:01:40.894Z,23.60
2022-08-10T18:04:19.238Z,23.60
2022-08-10T18:06:54.528Z,23.60
2022-08-10T18:09:33.241Z,23.60
2022-08-10T18:12:10.386Z,23.60
2022-08-10T18:14:48.099Z,23.60
2022-08-10T18:17:20.409Z,23.60
2022-08-10T18:19:53.547Z,23.60
2022-08-10T18:22:22.487Z,23.60
2022-08-10T18:24:50.667Z,23.60
2022-08-10T18:27:19.766Z,23.60
2022-08-10T18:29:50.932Z,23.60
2022-08-10T18:32:20.669Z,23.50
2022-08-10T18:34:49.455Z,23.60
2022-08-10T18:37:22.244Z,23.60
2022-08-10T18:39:50.137Z,23.60
2022-08-10T18:42:21.308Z,23.60
2022-08-10T18:45:14.055Z,23.60
2022-08-10T18:48:13.305Z,23.60
2022-08-10T18:50:49.588Z,23.60
2022-08-10T18:53:20.127Z,23.60
2022-08-10T18:56:10.029Z,23.60
2022-08-10T18:58:51.714Z,23.60
2022-08-10T19:01:48.763Z,23.70
2022-08-10T19:04:51.872Z,23.70
2022-08-10T19:07:46.854Z,23.70
2022-08-10T19:10:34.093Z,23.70
2022-08-10T19:13:10.460Z,23.70
2022-08-10T19:15:59.213Z,23.80
2022-08-10T19:18:33.734Z,23.80
2022-08-10T19:21:21.057Z,23.80
2022-08-10T19:24:02.853Z,23.80
2022-08-10T19:26:41.965Z,23.90
2022-08-10T19:30:11.115Z,23.90
2022-08-10T19:32:52.807Z,23.90
2022-08-10T19:36:04.488Z,23.80
2022-08-10T19:39:01.534Z,23.80
2022-08-10T19:41:42.006Z,23.80
2022-08-10T19:44:25.626Z,23.80
2022-08-10T19:47:02.500Z,23.80
2022-08-10T19:49:47.165Z,23.80
2022-08-10T19:53:02.248Z,23.80
2022-08-10T19:55:47.923Z,23.80
2022-08-10T19:58:22.656Z,23.80
2022-08-10T20:01:02.400Z,23.80
2022-08-10T20:03:46.064Z,23.80
2022-08-10T20:06:20.822Z,23.80
2022-08-10T20:08:56.602Z,23.80
2022-08-10T20:11:44.813Z,23.80
2022-08-10T20:14:48.160Z,23.80
2022-08-10T20:17:45.183Z,23.80
2022-08-10T20:20:31.002Z,23.80
2022-08-10T20:23:01.722Z,23.80
2022-08-10T20:25:31.177Z,23.80
2022-08-10T20:28:35.792Z,23.80
2022-08-10T20:31:08.761Z,23.80
2022-08-10T20:33:42.534Z,23.80
2022-08-10T20:36:31.142Z,23.90
2022-08-10T20:39:11.763Z,23.80
2022-08-10T20:42:06.467Z,23.80
2022-08-10T20:44:50.574Z,23.80
2022-08-10T20:47:54.452Z,23.80
2022-08-10T20:50:42.634Z,23.90
2022-08-10T20:53:19.004Z,23.90
2022-08-10T20:55:54.139Z,23.90
2022-08-10T20:58:36.918Z,23.90
2022-08-10T21:01:12.914Z,23.90
2022-08-10T21:03:43.565Z,23.90
2022-08-10T21:06:44.927Z,24.00
2022-08-10T21:09:28.700Z,24.00
2022-08-10T21:12:16.485Z,24.00
2022-08-10T21:15:12.009Z,23.90
2022-08-10T21:18:00.762Z,23.90
2022-08-10T21:20:54.253Z,23.90
2022-08-10T21:23:48.325Z,23.90
2022-08-10T21:26:29.821Z,23.90
2022-08-10T21:29:21.556Z,24.00
2022-08-10T21:32:03.326Z,24.00
2022-08-10T21:35:37.874Z,24.00
2022-08-10T21:38:13.804Z,24.10
2022-08-10T21:41:18.211Z,24.10
2022-08-10T21:44:01.295Z,24.10
2022-08-10T21:47:30.970Z,24.10
2022-08-10T21:50:27.956Z,24.10
2022-08-10T21:53:43.871Z,24.10
2022-08-10T21:57:01.584Z,24.10
2022-08-10T22:00:00.136Z,24.20
2022-08-10T22:02:50.931Z,24.10
2022-08-10T22:05:47.744Z,24.10
2022-08-10T22:08:38.240Z,24.10
2022-08-10T22:11:28.191Z,24.10
2022-08-10T22:14:15.653Z,24.10
2022-08-10T22:17:59.631Z,24.00
2022-08-10T22:20:28.400Z,24.00
2022-08-10T22:23:40.187Z,24.00
2022-08-10T22:26:40.028Z,24.00
2022-08-10T22:29:42.314Z,23.90
2022-08-10T22:32:43.143Z,23.90
2022-08-10T22:35:34.187Z,23.90
2022-08-10T22:38:56.477Z,23.90
2022-08-10T22:42:16.443Z,23.80
2022-08-10T22:45:04.349Z,23.80
2022-08-10T22:47:51.696Z,23.80
2022-08-10T22:50:24.947Z,23.80
2022-08-10T22:53:04.645Z,23.80
2022-08-10T22:55:59.379Z,23.80
2022-08-10T22:58:41.521Z,23.80
2022-08-10T23:01:42.143Z,23.70
2022-08-10T23:04:35.843Z,23.70
2022-08-10T23:07:09.337Z,23.60
2022-08-10T23:09:37.686Z,23.60
2022-08-10T23:12:27.586Z,23.60
2022-08-10T23:15:15.344Z,23.60
2022-08-10T23:18:11.515Z,23.60
2022-08-10T23:20:41.148Z,23.60
2022-08-10T23:23:13.124Z,23.50
2022-08-10T23:25:57.332Z,23.50
2022-08-10T23:28:55.477Z,23.50
2022-08-10T23:31:14.533Z,23.60
2022-08-10T23:33:41.899Z,23.60
2022-08-10T23:36:34.593Z,23.60
2022-08-10T23:39:26.099Z,23.60
2022-08-10T23:41:56.280Z,23.60
2022-08-10T23:44:24.689Z,23.60
2022-08-10T23:46:52.055Z,23.60
2022-08-10T23:49:19.941Z,23.60
2022-08-10T23:51:55.682Z,23.50
2022-08-10T23:54:24.721Z,23.50
2022-08-10T23:57:01.017Z,23.50
2022-08-10T23:59:31.650Z,23.50
